Time,TemperatureF,DewpointF,PressureIn,WindDirection,WindDirectionDegrees,WindSpeedMPH,WindSpeedGustMPH,Humidity,HourlyPrecipIn,Conditions,Clouds,dailyrainin,SolarRadiationWatts/m^2,SoftwareType,DateUTC
2013-05-31 00:01:00,63.0,58.0,-100.00,North,9,10.0,17.0,85,0.00,,,0.00,0.000000,,2013-05-31 10:01:00,
2013-05-31 00:23:00,63.0,58.0,-100.00,North,9,10.0,17.0,85,0.00,,,0.00,0.000000,,2013-05-31 10:23:00,
2013-05-31 00:33:00,63.0,58.0,-100.00,North,9,10.0,17.0,85,0.00,,,0.00,0.000000,,2013-05-31 10:33:00,
2013-05-31 00:42:00,63.0,58.0,-100.00,North,9,10.0,17.0,85,0.00,,,0.00,0.000000,,2013-05-31 10:42:00,
2013-05-31 00:52:00,63.0,58.0,-100.00,North,9,10.0,17.0,85,0.00,,,0.00,0.000000,,2013-05-31 10:52:00,
2013-05-31 01:01:00,64.0,59.0,-100.00,NNE,16,9.0,17.0,84,0.00,,,0.00,0.000000,,2013-05-31 11:01:00,
2013-05-31 01:22:00,64.0,59.0,-100.00,NNE,16,9.0,17.0,84,0.00,,,0.00,0.000000,,2013-05-31 11:22:00,
2013-05-31 01:32:00,64.0,59.0,-100.00,NNE,16,9.0,17.0,84,0.00,,,0.00,0.000000,,2013-05-31 11:32:00,
2013-05-31 01:42:00,64.0,59.0,-100.00,NNE,16,9.0,17.0,84,0.00,,,0.00,0.000000,,2013-05-31 11:42:00,
2013-05-31 01:52:00,64.0,59.0,-100.00,NNE,16,9.0,17.0,84,0.00,,,0.00,0.000000,,2013-05-31 11:52:00,
2013-05-31 02:01:00,64.0,58.0,-100.00,NNE,15,9.0,16.0,82,0.00,,,0.00,0.000000,,2013-05-31 12:01:00,
2013-05-31 02:22:00,64.0,58.0,-100.00,NNE,15,9.0,16.0,82,0.00,,,0.00,0.000000,,2013-05-31 12:22:00,
2013-05-31 02:32:00,64.0,58.0,-100.00,NNE,15,9.0,16.0,82,0.00,,,0.00,0.000000,,2013-05-31 12:32:00,
2013-05-31 02:42:00,64.0,58.0,-100.00,NNE,15,9.0,16.0,82,0.00,,,0.00,0.000000,,2013-05-31 12:42:00,
2013-05-31 02:52:00,64.0,58.0,-100.00,NNE,15,9.0,16.0,82,0.00,,,0.00,0.000000,,2013-05-31 12:52:00,
2013-05-31 03:01:00,63.0,58.0,-100.00,NNE,21,8.0,12.0,85,0.00,,,0.00,0.000000,,2013-05-31 13:01:00,
2013-05-31 03:21:00,63.0,58.0,-100.00,NNE,21,8.0,12.0,85,0.00,,,0.00,0.000000,,2013-05-31 13:21:00,
2013-05-31 03:32:00,63.0,58.0,-100.00,NNE,21,8.0,12.0,85,0.00,,,0.00,0.000000,,2013-05-31 13:32:00,
2013-05-31 03:42:00,63.0,58.0,-100.00,NNE,21,8.0,12.0,85,0.00,,,0.00,0.000000,,2013-05-31 13:42:00,
2013-05-31 03:52:00,63.0,58.0,-100.00,NNE,21,8.0,12.0,85,0.00,,,0.00,0.000000,,2013-05-31 13:52:00,
2013-05-31 04:01:00,64.0,61.0,-100.00,NNE,13,8.0,12.0,90,0.00,,,0.00,0.000000,,2013-05-31 14:01:00,
2013-05-31 04:22:00,64.0,61.0,-100.00,NNE,13,8.0,12.0,90,0.00,,,0.00,0.000000,,2013-05-31 14:22:00,
2013-05-31 04:32:00,64.0,61.0,-100.00,NNE,13,8.0,12.0,90,0.00,,,0.00,0.000000,,2013-05-31 14:32:00,
2013-05-31 04:42:00,64.0,61.0,-100.00,NNE,13,8.0,12.0,90,0.00,,,0.00,0.000000,,2013-05-31 14:42:00,
2013-05-31 04:52:00,64.0,61.0,-100.00,NNE,13,8.0,12.0,90,0.00,,,0.00,0.000000,,2013-05-31 14:52:00,
2013-05-31 05:01:00,63.0,61.0,-100.00,North,5,7.0,11.0,92,0.00,,,-99.99,0.000000,,2013-05-31 15:01:00,
2013-05-31 05:21:00,63.0,61.0,-100.00,North,5,7.0,11.0,92,0.00,,,-99.99,0.000000,,2013-05-31 15:21:00,
2013-05-31 05:33:00,63.0,61.0,-100.00,North,5,7.0,11.0,92,0.00,,,-99.99,0.000000,,2013-05-31 15:33:00,
2013-05-31 05:43:00,63.0,61.0,-100.00,North,5,7.0,11.0,92,0.00,,,-99.99,0.000000,,2013-05-31 15:43:00,
2013-05-31 05:53:00,63.0,61.0,-100.00,North,5,7.0,11.0,92,0.00,,,-99.99,0.000000,,2013-05-31 15:53:00,
2013-05-31 06:01:00,63.0,61.0,-100.00,North,2,8.0,14.0,93,0.00,,,0.00,3.000000,,2013-05-31 16:01:00,
2013-05-31 06:22:00,63.0,61.0,-100.00,North,2,8.0,14.0,93,0.00,,,0.00,3.000000,,2013-05-31 16:22:00,
2013-05-31 06:33:00,63.0,61.0,-100.00,North,2,8.0,14.0,93,0.00,,,0.00,3.000000,,2013-05-31 16:33:00,
2013-05-31 06:42:00,63.0,61.0,-100.00,North,2,8.0,14.0,93,0.00,,,0.00,3.000000,,2013-05-31 16:42:00,
2013-05-31 06:52:00,63.0,61.0,-100.00,North,2,8.0,14.0,93,0.00,,,0.00,3.000000,,2013-05-31 16:52:00,
2013-05-31 07:01:00,68.0,64.0,-100.00,NNE,25,7.0,13.0,87,0.00,,,0.00,106.000000,,2013-05-31 17:01:00,
2013-05-31 07:22:00,68.0,64.0,-100.00,NNE,25,7.0,13.0,87,0.00,,,0.00,106.000000,,2013-05-31 17:22:00,
2013-05-31 07:32:00,68.0,64.0,-100.00,NNE,25,7.0,13.0,87,0.00,,,0.00,106.000000,,2013-05-31 17:32:00,
2013-05-31 07:42:00,68.0,64.0,-100.00,NNE,25,7.0,13.0,87,0.00,,,0.00,106.000000,,2013-05-31 17:42:00,
2013-05-31 07:52:00,68.0,64.0,-100.00,NNE,25,7.0,13.0,87,0.00,,,0.00,106.000000,,2013-05-31 17:52:00,
2013-05-31 08:01:00,66.0,64.0,-100.00,ESE,120,7.0,13.0,94,0.00,,,0.00,209.000000,,2013-05-31 18:01:00,
2013-05-31 08:22:00,66.0,64.0,-100.00,ESE,120,7.0,13.0,94,0.00,,,0.00,209.000000,,2013-05-31 18:22:00,
2013-05-31 08:32:00,66.0,64.0,-100.00,ESE,120,7.0,13.0,94,0.00,,,0.00,209.000000,,2013-05-31 18:32:00,
2013-05-31 08:42:00,66.0,64.0,-100.00,ESE,120,7.0,13.0,94,0.00,,,0.00,209.000000,,2013-05-31 18:42:00,
2013-05-31 08:52:00,66.0,64.0,-100.00,ESE,120,7.0,13.0,94,0.00,,,0.00,209.000000,,2013-05-31 18:52:00,
2013-05-31 09:01:00,71.0,66.0,-100.00,East,84,9.0,13.0,84,0.00,,,0.00,325.000000,,2013-05-31 19:01:00,
2013-05-31 09:22:00,71.0,66.0,-100.00,East,84,9.0,13.0,84,0.00,,,0.00,325.000000,,2013-05-31 19:22:00,
2013-05-31 09:32:00,71.0,66.0,-100.00,East,84,9.0,13.0,84,0.00,,,0.00,325.000000,,2013-05-31 19:32:00,
2013-05-31 09:42:00,71.0,66.0,-100.00,East,84,9.0,13.0,84,0.00,,,0.00,325.000000,,2013-05-31 19:42:00,
2013-05-31 09:52:00,71.0,66.0,-100.00,East,84,9.0,13.0,84,0.00,,,0.00,325.000000,,2013-05-31 19:52:00,
2013-05-31 10:01:00,70.0,65.0,-100.00,East,94,10.0,17.0,84,0.00,,,0.00,358.000000,,2013-05-31 20:01:00,
2013-05-31 10:22:00,70.0,65.0,-100.00,East,94,10.0,17.0,84,0.00,,,0.00,358.000000,,2013-05-31 20:22:00,
2013-05-31 10:32:00,70.0,65.0,-100.00,East,94,10.0,17.0,84,0.00,,,0.00,358.000000,,2013-05-31 20:32:00,
2013-05-31 10:42:00,70.0,65.0,-100.00,East,94,10.0,17.0,84,0.00,,,0.00,358.000000,,2013-05-31 20:42:00,
2013-05-31 10:52:00,70.0,65.0,-100.00,East,94,10.0,17.0,84,0.00,,,0.00,358.000000,,2013-05-31 20:52:00,
2013-05-31 11:01:00,70.0,66.0,-100.00,East,92,10.0,18.0,86,0.00,,,0.00,364.000000,,2013-05-31 21:01:00,
2013-05-31 11:22:00,70.0,66.0,-100.00,East,92,10.0,18.0,86,0.00,,,0.00,364.000000,,2013-05-31 21:22:00,
2013-05-31 11:33:00,70.0,66.0,-100.00,East,92,10.0,18.0,86,0.00,,,0.00,364.000000,,2013-05-31 21:33:00,
2013-05-31 11:43:00,70.0,66.0,-100.00,East,92,10.0,18.0,86,0.00,,,0.00,364.000000,,2013-05-31 21:43:00,
2013-05-31 11:54:00,70.0,66.0,-100.00,East,92,10.0,18.0,86,0.00,,,0.00,364.000000,,2013-05-31 21:54:00,
2013-05-31 12:01:00,72.0,65.0,-100.00,East,98,12.0,18.0,80,0.00,,,0.00,524.000000,,2013-05-31 22:01:00,
2013-05-31 12:22:00,72.0,65.0,-100.00,East,98,12.0,18.0,80,0.00,,,0.00,524.000000,,2013-05-31 22:22:00,
2013-05-31 12:33:00,72.0,65.0,-100.00,East,98,12.0,18.0,80,0.00,,,0.00,524.000000,,2013-05-31 22:33:00,
2013-05-31 12:42:00,72.0,65.0,-100.00,East,98,12.0,18.0,80,0.00,,,0.00,524.000000,,2013-05-31 22:42:00,
2013-05-31 12:53:00,72.0,65.0,-100.00,East,98,12.0,18.0,80,0.00,,,0.00,524.000000,,2013-05-31 22:53:00,
2013-05-31 13:01:00,72.0,65.0,-100.00,East,91,14.0,21.0,79,0.00,,,0.00,551.000000,,2013-05-31 23:01:00,
2013-05-31 13:22:00,72.0,65.0,-100.00,East,91,14.0,21.0,79,0.00,,,0.00,551.000000,,2013-05-31 23:22:00,
2013-05-31 13:32:00,72.0,65.0,-100.00,East,91,14.0,21.0,79,0.00,,,0.00,551.000000,,2013-05-31 23:32:00,
2013-05-31 13:42:00,72.0,65.0,-100.00,East,91,14.0,21.0,79,0.00,,,0.00,551.000000,,2013-05-31 23:42:00,
2013-05-31 13:52:00,72.0,65.0,-100.00,East,91,14.0,21.0,79,0.00,,,0.00,551.000000,,2013-05-31 23:52:00,
2013-05-31 14:01:00,76.0,64.0,-100.00,ENE,61,11.0,20.0,67,0.00,,,0.00,657.000000,,2013-06-01 00:01:00,
2013-05-31 14:22:00,76.0,64.0,-100.00,ENE,61,11.0,20.0,67,0.00,,,0.00,657.000000,,2013-06-01 00:22:00,
2013-05-31 14:32:00,76.0,64.0,-100.00,ENE,61,11.0,20.0,67,0.00,,,0.00,657.000000,,2013-06-01 00:32:00,
2013-05-31 14:42:00,76.0,64.0,-100.00,ENE,61,11.0,20.0,67,0.00,,,0.00,657.000000,,2013-06-01 00:42:00,
2013-05-31 14:52:00,76.0,64.0,-100.00,ENE,61,11.0,20.0,67,0.00,,,0.00,657.000000,,2013-06-01 00:52:00,
2013-05-31 15:01:00,76.0,64.0,-100.00,NE,56,12.0,24.0,67,0.00,,,0.00,859.000000,,2013-06-01 01:01:00,
2013-05-31 15:22:00,76.0,64.0,-100.00,NE,56,12.0,24.0,67,0.00,,,0.00,859.000000,,2013-06-01 01:22:00,
2013-05-31 15:32:00,76.0,64.0,-100.00,NE,56,12.0,24.0,67,0.00,,,0.00,859.000000,,2013-06-01 01:32:00,
2013-05-31 15:42:00,76.0,64.0,-100.00,NE,56,12.0,24.0,67,0.00,,,0.00,859.000000,,2013-06-01 01:42:00,
2013-05-31 15:52:00,76.0,64.0,-100.00,NE,56,12.0,24.0,67,0.00,,,0.00,859.000000,,2013-06-01 01:52:00,
2013-05-31 16:01:00,74.0,64.0,-100.00,NE,46,15.0,22.0,70,0.00,,,0.00,626.000000,,2013-06-01 02:01:00,
2013-05-31 16:21:00,74.0,64.0,-100.00,NE,46,15.0,22.0,70,0.00,,,0.00,626.000000,,2013-06-01 02:21:00,
2013-05-31 16:32:00,74.0,64.0,-100.00,NE,46,15.0,22.0,70,0.00,,,0.00,626.000000,,2013-06-01 02:32:00,
2013-05-31 16:42:00,74.0,64.0,-100.00,NE,46,15.0,22.0,70,0.00,,,0.00,626.000000,,2013-06-01 02:42:00,
2013-05-31 16:52:00,74.0,64.0,-100.00,NE,46,15.0,22.0,70,0.00,,,0.00,626.000000,,2013-06-01 02:52:00,
2013-05-31 17:01:00,72.0,64.0,-100.00,NE,40,13.0,21.0,77,0.00,,,0.00,472.000000,,2013-06-01 03:01:00,
2013-05-31 17:22:00,72.0,64.0,-100.00,NE,40,13.0,21.0,77,0.00,,,0.00,472.000000,,2013-06-01 03:22:00,
2013-05-31 17:33:00,72.0,64.0,-100.00,NE,40,13.0,21.0,77,0.00,,,0.00,472.000000,,2013-06-01 03:33:00,
2013-05-31 17:43:00,72.0,64.0,-100.00,NE,40,13.0,21.0,77,0.00,,,0.00,472.000000,,2013-06-01 03:43:00,
2013-05-31 17:53:00,72.0,64.0,-100.00,NE,40,13.0,21.0,77,0.00,,,0.00,472.000000,,2013-06-01 03:53:00,
2013-05-31 18:01:00,68.0,63.0,-100.00,NE,44,11.0,18.0,84,0.00,,,0.00,140.000000,,2013-06-01 04:01:00,
2013-05-31 18:23:00,68.0,63.0,-100.00,NE,44,11.0,18.0,84,0.00,,,0.00,140.000000,,2013-06-01 04:23:00,
2013-05-31 18:33:00,68.0,63.0,-100.00,NE,44,11.0,18.0,84,0.00,,,0.00,140.000000,,2013-06-01 04:33:00,
2013-05-31 18:42:00,68.0,63.0,-100.00,NE,44,11.0,18.0,84,0.00,,,0.00,140.000000,,2013-06-01 04:42:00,
2013-05-31 18:53:00,68.0,63.0,-100.00,NE,44,11.0,18.0,84,0.00,,,0.00,140.000000,,2013-06-01 04:53:00,
2013-05-31 19:01:00,66.0,63.0,-100.00,ENE,65,8.0,16.0,91,0.00,,,0.00,17.000000,,2013-06-01 05:01:00,
2013-05-31 19:22:00,66.0,63.0,-100.00,ENE,65,8.0,16.0,91,0.00,,,0.00,17.000000,,2013-06-01 05:22:00,
2013-05-31 19:32:00,66.0,63.0,-100.00,ENE,65,8.0,16.0,91,0.00,,,0.00,17.000000,,2013-06-01 05:32:00,
2013-05-31 19:42:00,66.0,63.0,-100.00,ENE,65,8.0,16.0,91,0.00,,,0.00,17.000000,,2013-06-01 05:42:00,
2013-05-31 19:52:00,66.0,63.0,-100.00,ENE,65,8.0,16.0,91,0.00,,,0.00,17.000000,,2013-06-01 05:52:00,
2013-05-31 20:01:00,65.0,63.0,-100.00,ENE,62,5.0,13.0,92,0.00,,,-99.99,0.000000,,2013-06-01 06:01:00,
2013-05-31 20:22:00,65.0,63.0,-100.00,ENE,62,5.0,13.0,92,0.00,,,-99.99,0.000000,,2013-06-01 06:22:00,
2013-05-31 20:32:00,65.0,63.0,-100.00,ENE,62,5.0,13.0,92,0.00,,,-99.99,0.000000,,2013-06-01 06:32:00,
2013-05-31 20:42:00,65.0,63.0,-100.00,ENE,62,5.0,13.0,92,0.00,,,-99.99,0.000000,,2013-06-01 06:42:00,
2013-05-31 20:52:00,65.0,63.0,-100.00,ENE,62,5.0,13.0,92,0.00,,,-99.99,0.000000,,2013-06-01 06:52:00,
2013-05-31 21:01:00,65.0,63.0,-100.00,South,180,2.0,14.0,92,0.00,,,0.00,0.000000,,2013-06-01 07:01:00,
2013-05-31 21:22:00,65.0,63.0,-100.00,South,180,2.0,14.0,92,0.00,,,0.00,0.000000,,2013-06-01 07:22:00,
2013-05-31 21:32:00,65.0,63.0,-100.00,South,180,2.0,14.0,92,0.00,,,0.00,0.000000,,2013-06-01 07:32:00,
2013-05-31 21:42:00,65.0,63.0,-100.00,South,180,2.0,14.0,92,0.00,,,0.00,0.000000,,2013-06-01 07:42:00,
2013-05-31 21:52:00,65.0,63.0,-100.00,South,180,2.0,14.0,92,0.00,,,0.00,0.000000,,2013-06-01 07:52:00,
2013-05-31 22:01:00,64.0,63.0,-100.00,South,190,1.0,8.0,96,0.00,,,0.00,0.000000,,2013-06-01 08:01:00,
2013-05-31 22:22:00,64.0,63.0,-100.00,South,190,1.0,8.0,96,0.00,,,0.00,0.000000,,2013-06-01 08:22:00,
2013-05-31 22:32:00,64.0,63.0,-100.00,South,190,1.0,8.0,96,0.00,,,0.00,0.000000,,2013-06-01 08:32:00,
2013-05-31 22:42:00,64.0,63.0,-100.00,South,190,1.0,8.0,96,0.00,,,0.00,0.000000,,2013-06-01 08:42:00,
2013-05-31 22:52:00,64.0,63.0,-100.00,South,190,1.0,8.0,96,0.00,,,0.00,0.000000,,2013-06-01 08:52:00,
2013-05-31 23:01:00,64.0,63.0,-100.00,South,173,3.0,7.0,97,0.00,,,0.00,0.000000,,2013-06-01 09:01:00,
2013-05-31 23:22:00,64.0,63.0,-100.00,South,173,3.0,7.0,97,0.00,,,0.00,0.000000,,2013-06-01 09:22:00,
2013-05-31 23:33:00,64.0,63.0,-100.00,South,173,3.0,7.0,97,0.00,,,0.00,0.000000,,2013-06-01 09:33:00,
2013-05-31 23:43:00,64.0,63.0,-100.00,South,173,3.0,7.0,97,0.00,,,0.00,0.000000,,2013-06-01 09:43:00,
2013-05-31 23:53:00,64.0,63.0,-100.00,South,173,3.0,7.0,97,0.00,,,0.00,0.000000,,2013-06-01 09:53:00,